Tenants Harbor, Maine
Current Conditions -  °F | °C
As of 9:15 AM on Saturday 22 Nov 2014 (Local Time) from KRKD Reporting Station
Clear Clear  
Wind Chill: 20°   Ceiling: Unl
Heat Index: 28°   Visibility: 10mi
Dew Point: 12°   Wind: 9mph
Humidity: 51%   Direction: 260°W
Pressure: 30.29"   Gusts: NA
Location:  43.97°N, 69.21°W
Report Text: KRKD 221415Z AUTO 26008KT 10SM CLR M02/M11 A3029 RMK AO1
Loading
Personal Weather Stations






























Interactive Weather Map New forecast layout! Learn more

10-Day Weather Forecast

Advertisements
Track Severe Weather on mobile